Time;durP1;ratioP1;P1;durP2;ratioP2;P2;SDS_P1;SDS_P2;PMS_P1;PMS_P2;Temp;Humidity;BMP_temperature;BMP_pressure;BME280_temperature;BME280_humidity;BME280_pressure;Samples;Min_cycle;Max_cycle;Signal;HPM_P1;HPM_P2
2022/02/09 00:00:05;;;;;;;8.33;7.10;;;;;;;7.42;80.10;101032.67;2143697;83;32893;-61
2022/02/09 00:03:13;;;;;;;10.78;8.55;;;;;;;7.43;80.15;101040.20;2143916;83;27960;-60
2022/02/09 00:06:23;;;;;;;9.23;8.30;;;;;;;7.44;80.18;101045.95;2143945;82;27621;-60
2022/02/09 00:09:17;;;;;;;9.55;7.45;;;;;;;7.44;80.21;101047.28;2105875;83;28721;-61
2022/02/09 00:12:26;;;;;;;9.55;8.05;;;;;;;7.45;80.21;101052.56;2123714;83;32300;-61
2022/02/09 00:38:11;;;;;;;7.42;6.67;;;;;;;7.52;80.31;101067.09;2107038;84;28272;-62
2022/02/09 01:38:04;;;;;;;8.90;6.95;;;;;;;7.63;80.69;101085.50;2127292;83;32365;-60
2022/02/09 01:51:12;;;;;;;6.83;6.12;;;;;;;7.64;80.70;101088.11;2147872;81;31486;-61
2022/02/09 01:55:52;;;;;;;9.23;7.10;;;;;;;7.64;80.71;101090.78;1987150;89;29422;-61
2022/02/09 01:58:54;;;;;;;8.95;7.30;;;;;;;7.65;80.76;101097.01;2019109;88;28444;-61
2022/02/09 02:01:56;;;;;;;8.75;6.87;;;;;;;7.67;80.78;101101.37;2022791;86;29819;-62
2022/02/09 02:04:58;;;;;;;10.93;6.75;;;;;;;7.66;80.78;101091.63;2054049;86;31711;-63
2022/02/09 02:08:01;;;;;;;9.23;6.83;;;;;;;7.67;80.81;101093.84;2053667;86;33625;-61
2022/02/09 02:11:19;;;;;;;7.05;6.22;;;;;;;7.67;80.79;101086.70;2053826;86;29471;-61
2022/02/09 02:17:42;;;;;;;8.05;6.50;;;;;;;7.67;80.85;101088.52;2042929;86;29938;-62
2022/02/09 02:20:57;;;;;;;7.33;6.62;;;;;;;7.66;80.84;101086.29;2053719;86;31078;-62
2022/02/09 02:27:01;;;;;;;7.97;6.28;;;;;;;7.69;80.88;101085.36;2052809;86;29083;-61
2022/02/09 02:30:11;;;;;;;8.00;6.75;;;;;;;7.69;80.89;101090.69;2052921;85;28495;-62
2022/02/09 02:33:18;;;;;;;12.33;7.22;;;;;;;7.70;80.89;101095.08;2111736;81;27990;-62
2022/02/09 02:59:28;;;;;;;10.80;8.43;;;;;;;7.74;80.81;101082.09;1997783;89;30470;-61
2022/02/09 03:12:44;;;;;;;13.58;8.98;;;;;;;7.75;80.78;101067.41;2081413;85;34209;-60
2022/02/09 03:22:13;;;;;;;10.70;8.40;;;;;;;7.74;80.76;101074.09;2040497;86;30036;-61
2022/02/09 03:45:38;;;;;;;11.73;10.40;;;;;;;7.69;80.73;101086.22;1970823;89;34252;-61
2022/02/09 03:51:38;;;;;;;15.30;10.30;;;;;;;7.71;80.78;101098.17;1950206;91;27770;-61
2022/02/09 03:54:52;;;;;;;15.18;10.03;;;;;;;7.71;80.84;101103.06;1946933;91;29930;-62
2022/02/09 03:57:30;;;;;;;11.78;9.65;;;;;;;7.71;80.81;101102.17;2071738;85;32419;-60
2022/02/09 04:00:34;;;;;;;15.00;9.08;;;;;;;7.69;80.82;101103.55;2078461;85;33439;-61
2022/02/09 04:03:33;;;;;;;9.88;7.95;;;;;;;7.67;80.79;101101.37;2177267;81;30918;-60
2022/02/09 04:06:37;;;;;;;10.48;8.78;;;;;;;7.67;80.82;101096.05;2187989;81;28279;-61
2022/02/09 04:09:45;;;;;;;11.18;8.93;;;;;;;7.68;80.85;101095.61;2188794;81;28400;-60
2022/02/09 04:16:06;;;;;;;14.53;8.68;;;;;;;7.67;80.88;101100.52;2148598;82;34235;-60
2022/02/09 04:39:15;;;;;;;12.50;8.28;;;;;;;7.56;81.27;101084.78;2148693;82;27657;-60
2022/02/09 04:54:43;;;;;;;15.10;8.85;;;;;;;7.50;81.48;101075.14;2045157;86;27719;-59
2022/02/09 04:57:49;;;;;;;14.25;9.53;;;;;;;7.52;81.49;101080.42;2025719;86;29590;-60
2022/02/09 05:24:01;;;;;;;15.68;10.93;;;;;;;7.52;81.62;101082.65;1979093;89;30595;-60
2022/02/09 05:27:02;;;;;;;16.25;10.82;;;;;;;7.54;81.64;101087.45;2067229;85;27742;-60
2022/02/09 05:29:55;;;;;;;16.05;10.45;;;;;;;7.55;81.62;101085.69;2080125;85;29080;-60
2022/02/09 05:32:57;;;;;;;12.45;10.20;;;;;;;7.55;81.61;101084.35;2074247;84;32651;-60
2022/02/09 05:35:58;;;;;;;15.05;10.50;;;;;;;7.56;81.65;101083.44;2080375;85;32837;-60
2022/02/09 05:39:00;;;;;;;17.85;11.43;;;;;;;7.57;81.64;101088.72;2045010;87;30644;-61
2022/02/09 05:42:07;;;;;;;17.62;11.00;;;;;;;7.57;81.59;101090.06;2033302;85;27642;-60
2022/02/09 05:45:09;;;;;;;23.35;15.93;;;;;;;7.58;81.60;101087.81;2106606;83;29465;-60
2022/02/09 05:51:36;;;;;;;15.75;13.25;;;;;;;7.60;81.59;101088.66;2087551;82;33021;-60
2022/02/09 05:55:01;;;;;;;18.27;13.38;;;;;;;7.61;81.58;101088.22;2125233;83;30895;-60
2022/02/09 05:57:47;;;;;;;15.60;11.95;;;;;;;7.63;81.58;101096.16;2089442;83;28361;-60
2022/02/09 06:00:48;;;;;;;20.40;12.70;;;;;;;7.65;81.57;101094.34;2106707;84;29067;-61
2022/02/09 06:03:50;;;;;;;19.52;13.53;;;;;;;7.66;81.54;101100.09;2113366;83;30823;-61
2022/02/09 06:06:51;;;;;;;25.65;15.32;;;;;;;7.69;81.53;101102.69;2125269;83;33421;-61
2022/02/09 06:09:53;;;;;;;25.95;16.55;;;;;;;7.69;81.49;101110.22;2125377;83;30594;-61
2022/02/09 06:19:40;;;;;;;17.70;13.40;;;;;;;7.72;81.46;101114.59;2124811;82;29194;-61
2022/02/09 06:19:44;;;;;;;20.15;13.13;;;;;;;7.72;81.35;101115.92;2125113;83;32125;-61
2022/02/09 06:22:39;;;;;;;18.98;11.28;;;;;;;7.71;81.35;101116.40;2124358;83;34185;-61
2022/02/09 06:25:41;;;;;;;17.00;11.45;;;;;;;7.72;81.37;101123.48;2088321;85;29367;-60
2022/02/09 06:28:44;;;;;;;15.30;10.68;;;;;;;7.74;81.31;101118.10;2088184;85;27685;-61
2022/02/09 06:31:50;;;;;;;15.68;10.05;;;;;;;7.73;81.29;101127.91;2088134;85;28944;-60
2022/02/09 06:34:53;;;;;;;14.10;10.25;;;;;;;7.74;81.21;101127.00;2088050;85;31861;-60
2022/02/09 06:37:58;;;;;;;14.35;9.50;;;;;;;7.76;81.21;101125.61;2086699;83;33104;-60
2022/02/09 06:40:59;;;;;;;13.80;10.10;;;;;;;7.76;81.18;101134.95;2121359;83;30339;-60
2022/02/09 06:44:02;;;;;;;16.30;10.48;;;;;;;7.77;81.12;101132.70;2121565;83;27633;-62
2022/02/09 06:47:05;;;;;;;15.28;10.43;;;;;;;7.79;81.10;101137.55;2121476;83;29078;-61
2022/02/09 06:50:12;;;;;;;11.38;8.63;;;;;;;7.79;81.10;101137.55;2095121;83;31089;-61
2022/02/09 06:56:40;;;;;;;13.28;9.35;;;;;;;7.84;81.07;101145.43;2120439;83;29712;-62
2022/02/09 06:59:38;;;;;;;10.78;8.30;;;;;;;7.86;81.04;101139.13;2141144;83;27595;-63
2022/02/09 07:02:33;;;;;;;13.38;9.60;;;;;;;7.88;81.03;101138.64;2149521;82;29130;-61
2022/02/09 07:05:35;;;;;;;12.03;8.63;;;;;;;7.91;81.00;101151.91;2124053;83;31418;-64
2022/02/09 07:08:36;;;;;;;17.07;9.50;;;;;;;7.94;80.90;101143.41;2105335;84;33965;-65
2022/02/09 07:11:38;;;;;;;11.53;8.18;;;;;;;7.96;80.89;101146.45;2123628;83;30432;-62
2022/02/09 07:14:40;;;;;;;13.28;9.50;;;;;;;7.98;80.83;101148.63;2143937;81;27653;-64
2022/02/09 07:17:44;;;;;;;15.30;8.53;;;;;;;8.01;80.79;101147.22;2143674;83;29014;-61
2022/02/09 07:20:58;;;;;;;15.48;9.48;;;;;;;8.05;80.77;101145.34;2143588;82;31627;-63
2022/02/09 07:23:58;;;;;;;19.37;11.15;;;;;;;8.09;80.76;101145.69;2122222;83;34294;-63
2022/02/09 07:27:24;;;;;;;18.30;11.12;;;;;;;8.15;80.78;101144.21;2123943;83;29727;-62
2022/02/09 07:30:07;;;;;;;14.07;9.70;;;;;;;8.23;80.79;101144.45;2100871;84;27724;-62
2022/02/09 07:33:09;;;;;;;13.55;9.35;;;;;;;8.28;80.69;101145.22;2124110;83;28668;-63
2022/02/09 07:36:14;;;;;;;13.78;8.80;;;;;;;8.32;80.62;101142.41;2105402;84;31999;-62
2022/02/09 07:39:15;;;;;;;12.18;8.48;;;;;;;8.32;80.45;101125.53;2123553;83;32988;-63
2022/02/09 07:42:24;;;;;;;19.30;9.00;;;;;;;8.44;80.50;101139.88;2143473;83;30211;-63
2022/02/09 07:45:42;;;;;;;12.50;8.90;;;;;;;8.50;80.46;101134.86;2142576;82;27656;-61
2022/02/09 07:48:52;;;;;;;13.03;8.53;;;;;;;8.54;80.30;101137.88;2141227;82;29920;-61
2022/02/09 07:54:57;;;;;;;13.32;9.20;;;;;;;8.63;80.23;101134.06;2126326;83;33894;-64
2022/02/09 07:57:58;;;;;;;9.75;8.20;;;;;;;8.64;80.02;101124.66;2105479;84;30550;-62
2022/02/09 08:01:00;;;;;;;13.75;8.38;;;;;;;8.67;79.94;101131.73;2105899;84;27618;-64
2022/02/09 08:04:03;;;;;;;13.80;8.85;;;;;;;8.71;79.96;101133.85;2107648;83;29246;-61
2022/02/09 08:07:05;;;;;;;9.43;7.58;;;;;;;8.76;79.98;101134.12;2143823;83;31850;-64
2022/02/09 08:10:16;;;;;;;9.10;7.70;;;;;;;8.78;79.77;101132.73;2143408;82;34212;-63
2022/02/09 08:29:29;;;;;;;7.37;6.58;;;;;;;8.95;79.23;101115.75;2143573;82;29648;-64
2022/02/09 08:35:34;;;;;;;12.07;7.33;;;;;;;9.14;79.12;101107.66;2110740;83;28912;-61
2022/02/09 08:38:36;;;;;;;10.35;6.22;;;;;;;9.24;79.00;101114.46;2114425;83;32154;-61
2022/02/09 08:41:38;;;;;;;8.95;6.67;;;;;;;9.32;78.80;101120.91;2122743;83;33430;-61
2022/02/09 08:44:40;;;;;;;9.35;6.87;;;;;;;9.38;78.61;101115.37;2144452;82;29260;-61
2022/02/09 08:47:43;;;;;;;9.75;7.05;;;;;;;9.48;78.58;101102.59;2161180;82;27662;-60
2022/02/09 08:50:45;;;;;;;11.43;6.87;;;;;;;9.60;78.40;101099.98;2126760;83;29463;-61
2022/02/09 08:53:47;;;;;;;9.83;6.55;;;;;;;9.72;78.42;101099.09;2126627;82;31840;-60
2022/02/09 08:56:49;;;;;;;9.10;6.40;;;;;;;9.82;78.23;101098.33;2126244;82;34303;-61
2022/02/09 08:59:52;;;;;;;8.18;6.22;;;;;;;9.93;78.08;101095.30;2126182;83;30158;-61
2022/02/09 09:03:13;;;;;;;7.97;5.70;;;;;;;10.04;77.72;101093.11;2161618;81;27521;-61
2022/02/09 09:06:08;;;;;;;10.53;5.40;;;;;;;10.18;77.71;101085.05;2160802;81;29052;-61
2022/02/09 09:59:08;;;;;;;10.93;5.67;;;;;;;10.87;74.12;101094.22;2178802;81;32466;-63
2022/02/09 10:32:27;;;;;;;3.27;2.98;;;;;;;10.26;72.81;101115.61;2174289;81;28005;-62
2022/02/09 10:35:25;;;;;;;4.08;2.42;;;;;;;10.14;72.68;101127.14;2173791;81;34348;-63
2022/02/09 10:38:32;;;;;;;3.62;2.40;;;;;;;10.06;72.50;101122.53;2177464;81;30679;-62
2022/02/09 10:41:38;;;;;;;3.80;2.20;;;;;;;10.00;72.60;101108.89;2177142;81;27640;-62
2022/02/09 10:45:03;;;;;;;2.67;2.20;;;;;;;9.92;72.30;101106.92;2184415;81;28679;-63
2022/02/09 10:48:07;;;;;;;3.27;2.50;;;;;;;9.88;72.16;101114.20;2117453;84;32032;-63
2022/02/09 10:51:29;;;;;;;2.40;2.20;;;;;;;9.87;72.38;101105.75;2104812;83;32960;-65
2022/02/09 10:54:31;;;;;;;4.10;2.65;;;;;;;9.91;72.42;101101.64;2084524;84;30719;-63
2022/02/09 10:57:33;;;;;;;5.12;2.80;;;;;;;9.93;72.33;101098.45;2084857;85;27839;-64
2022/02/09 11:00:36;;;;;;;4.55;2.95;;;;;;;9.98;72.33;101092.01;2081189;85;29692;-65
2022/02/09 11:03:38;;;;;;;3.02;2.80;;;;;;;10.05;72.20;101084.64;2052049;86;31416;-62
2022/02/09 11:06:44;;;;;;;4.62;3.70;;;;;;;10.07;72.07;101085.46;2016932;88;34159;-64
2022/02/09 11:09:46;;;;;;;4.90;3.60;;;;;;;10.15;72.18;101079.84;2052581;85;29937;-62
2022/02/09 11:12:52;;;;;;;4.12;3.42;;;;;;;10.22;71.93;101080.49;2009009;86;27889;-63
2022/02/09 11:15:53;;;;;;;6.55;5.87;;;;;;;10.31;71.89;101085.50;2052438;86;28510;-63
2022/02/09 11:18:56;;;;;;;5.83;4.80;;;;;;;10.43;71.90;101080.20;2052398;86;32429;-63
2022/02/09 11:22:11;;;;;;;13.53;8.85;;;;;;;10.57;71.82;101081.91;2052421;86;33170;-63
2022/02/09 11:25:27;;;;;;;10.38;6.97;;;;;;;10.67;71.58;101082.44;2020006;86;29407;-63
2022/02/09 11:28:32;;;;;;;6.37;4.45;;;;;;;10.75;71.25;101072.33;2009966;87;27884;-62
2022/02/09 11:31:34;;;;;;;4.30;3.72;;;;;;;10.81;70.82;101078.36;2093757;82;29320;-62
2022/02/09 11:34:56;;;;;;;6.10;4.37;;;;;;;10.82;70.47;101082.34;2156909;82;31094;-62
2022/02/09 11:41:19;;;;;;;5.78;4.85;;;;;;;10.91;70.29;101067.72;2150038;82;29340;-63
2022/02/09 11:45:14;;;;;;;5.50;4.47;;;;;;;10.99;69.96;101072.78;2123908;83;27725;-63
2022/02/09 11:58:41;;;;;;;6.50;2.90;;;;;;;11.38;69.39;101055.55;1985091;89;30122;-63
2022/02/09 12:01:41;;;;;;;3.62;2.92;;;;;;;11.41;68.61;101054.55;2014404;88;28133;-64
2022/02/09 12:11:41;;;;;;;6.65;2.92;;;;;;;11.47;68.42;101048.05;2016475;88;34153;-62
2022/02/09 12:15:13;;;;;;;5.05;2.50;;;;;;;11.43;67.97;101042.40;1986250;89;29359;-64
2022/02/09 12:18:24;;;;;;;3.95;3.02;;;;;;;11.44;68.02;101049.06;2012609;86;27880;-62
2022/02/09 12:21:26;;;;;;;3.55;3.02;;;;;;;11.48;67.77;101053.83;2034031;82;29715;-62
2022/02/09 12:24:29;;;;;;;4.97;3.08;;;;;;;11.48;67.51;101050.69;2145491;81;31990;-64
2022/02/09 12:27:31;;;;;;;4.35;2.90;;;;;;;11.49;67.64;101050.20;2123965;83;33831;-64
2022/02/09 12:30:34;;;;;;;63.00;42.73;;;;;;;11.46;67.26;101044.96;2185305;81;30603;-64
2022/02/09 12:33:43;;;;;;;4.22;3.55;;;;;;;11.41;67.26;101049.19;2185695;81;27691;-63
2022/02/09 12:36:45;;;;;;;4.78;3.17;;;;;;;11.35;66.97;101047.63;2163770;81;28814;-63
2022/02/09 12:39:54;;;;;;;3.75;3.12;;;;;;;11.26;67.02;101047.98;2166118;82;31167;-63
2022/02/09 12:42:58;;;;;;;3.40;3.10;;;;;;;11.21;67.09;101056.70;2166301;81;33932;-63
2022/02/09 12:46:03;;;;;;;5.10;3.85;;;;;;;11.09;66.88;101057.58;2139365;82;29409;-63
2022/02/09 12:49:11;;;;;;;2.92;2.60;;;;;;;11.00;67.18;101060.64;2124036;83;27642;-63
2022/02/09 12:52:15;;;;;;;6.12;3.62;;;;;;;10.93;67.31;101057.33;2123974;83;29463;-66
2022/02/09 12:55:20;;;;;;;;;;;;;;;10.87;67.15;101062.05;2150118;82;32259;-64
2022/02/09 12:58:23;;;;;;;2.92;2.52;;;;;;;10.78;67.21;101058.78;2123218;83;33643;-63
2022/02/09 13:01:25;;;;;;;4.05;2.22;;;;;;;10.69;67.06;101057.80;2122247;83;29403;-64
2022/02/09 13:04:35;;;;;;;3.27;2.72;;;;;;;10.61;67.02;101058.09;2108227;83;27800;-63
2022/02/09 13:07:37;;;;;;;2.10;1.90;;;;;;;10.57;67.12;101058.28;2108655;84;29181;-62
2022/02/09 13:10:43;;;;;;;4.80;3.05;;;;;;;10.52;66.74;101048.19;2107567;84;31749;-63
2022/02/09 13:13:53;;;;;;;;;;;;;;;10.45;66.76;101052.42;2095501;84;33808;-62
2022/02/09 13:23:34;;;;;;;5.80;2.62;;;;;;;10.27;66.79;101044.58;2161972;81;29487;-62
2022/02/09 13:51:49;;;;;;;3.05;2.30;;;;;;;10.23;66.62;101047.43;2185108;81;32368;-62
2022/02/09 14:04:40;;;;;;;5.28;3.45;;;;;;;9.84;66.12;101014.86;2112807;84;34421;-62
2022/02/09 14:13:19;;;;;;;3.62;2.70;;;;;;;9.90;66.52;101020.94;2016896;86;29266;-63
2022/02/09 14:55:28;;;;;;;42.73;29.63;;;;;;;9.76;65.96;101008.02;2162242;81;30519;-65
2022/02/09 14:58:24;;;;;;;31.07;20.85;;;;;;;9.70;65.78;101007.30;2162115;82;27697;-66
2022/02/09 15:01:35;;;;;;;12.50;7.03;;;;;;;9.66;65.67;101008.80;2177601;81;28719;-65
2022/02/09 15:11:04;;;;;;;17.35;8.83;;;;;;;9.53;65.30;101019.04;2197786;81;29447;-65
2022/02/09 15:17:30;;;;;;;10.40;5.30;;;;;;;9.44;65.24;101009.52;2197248;81;28654;-64
2022/02/09 15:20:38;;;;;;;26.52;11.73;;;;;;;9.40;65.24;101000.73;2150057;82;32084;-65
2022/02/09 15:23:19;;;;;;;17.37;7.83;;;;;;;9.35;65.36;101007.17;2188307;80;33846;-65
2022/02/09 15:26:21;;;;;;;13.40;6.80;;;;;;;9.32;65.16;101010.83;2198572;80;30243;-64
2022/02/09 15:29:23;;;;;;;10.30;4.97;;;;;;;9.28;65.26;101002.02;2157900;82;27672;-63
2022/02/09 15:32:31;;;;;;;8.98;5.00;;;;;;;9.27;65.17;100996.25;2184801;81;29725;-65
2022/02/09 15:35:34;;;;;;;16.52;8.55;;;;;;;9.25;65.37;100995.45;2122530;83;32269;-65
2022/02/09 15:38:44;;;;;;;10.23;5.15;;;;;;;9.24;65.03;100991.48;2161867;82;32988;-65
2022/02/09 15:41:55;;;;;;;14.25;7.53;;;;;;;9.22;65.29;100992.87;2111168;83;29342;-65
2022/02/09 15:58:56;;;;;;;26.15;11.93;;;;;;;9.05;65.67;100997.42;2126220;82;29369;-63
2022/02/09 16:08:42;;;;;;;24.27;14.25;;;;;;;8.93;66.10;100995.14;2145166;82;31426;-64
2022/02/09 16:16:30;;;;;;;18.75;12.82;;;;;;;8.90;66.24;101000.13;2143253;82;33049;-67
2022/02/09 16:19:03;;;;;;;19.27;11.90;;;;;;;8.80;66.43;101004.89;2110659;84;27742;-63
2022/02/09 16:37:49;;;;;;;14.30;10.00;;;;;;;8.63;66.91;101021.41;2011527;87;29356;-66
2022/02/09 16:50:25;;;;;;;22.15;13.40;;;;;;;8.51;67.17;101021.78;1998439;88;28426;-66
2022/02/09 16:53:47;;;;;;;31.65;17.82;;;;;;;8.49;67.28;101026.29;1950612;90;28764;-66
2022/02/09 16:56:51;;;;;;;30.57;16.52;;;;;;;8.47;67.35;101020.08;1978964;89;31891;-66
2022/02/09 17:19:12;;;;;;;26.17;14.10;;;;;;;8.36;67.98;101014.61;2037746;85;29704;-66
2022/02/09 17:22:13;;;;;;;25.72;13.65;;;;;;;8.32;67.98;101020.95;2037218;85;27765;-66
2022/02/09 17:25:17;;;;;;;28.07;14.47;;;;;;;8.32;68.04;101021.42;2035154;87;29737;-66
2022/02/09 17:28:18;;;;;;;27.70;13.58;;;;;;;8.30;68.10;101024.11;2035143;87;31250;-66
2022/02/09 17:31:30;;;;;;;20.23;10.43;;;;;;;8.30;68.16;101021.45;2036582;85;33280;-65
2022/02/09 17:54:38;;;;;;;11.57;6.60;;;;;;;8.25;67.75;101022.50;2205190;79;27620;-66
2022/02/09 17:57:10;;;;;;;10.23;6.92;;;;;;;8.23;67.89;101018.55;2196532;80;28808;-67
2022/02/09 18:00:16;;;;;;;11.40;7.05;;;;;;;8.24;67.60;101012.30;2201139;80;31021;-65
2022/02/09 18:03:19;;;;;;;18.35;9.90;;;;;;;8.23;67.62;101007.88;2201259;80;33737;-66
2022/02/09 18:06:32;;;;;;;22.02;12.93;;;;;;;8.24;67.60;101012.30;2201538;80;29330;-66
2022/02/09 18:09:41;;;;;;;26.33;13.95;;;;;;;8.25;67.71;101014.05;2200280;80;27753;-66
2022/02/09 18:29:21;;;;;;;24.57;13.72;;;;;;;8.26;67.92;101027.81;2106628;84;29176;-64
2022/02/09 18:32:36;;;;;;;22.85;12.25;;;;;;;8.25;68.02;101018.05;2115358;82;32194;-64
2022/02/09 18:48:31;;;;;;;25.30;15.80;;;;;;;8.21;67.82;101008.38;2012382;87;31103;-66
2022/02/09 18:58:51;;;;;;;23.83;13.62;;;;;;;8.19;67.82;101010.20;2041776;87;27713;-65
2022/02/09 19:01:33;;;;;;;27.70;17.00;;;;;;;8.20;67.91;101013.30;2042110;87;28670;-67
2022/02/09 19:20:43;;;;;;;39.83;22.13;;;;;;;8.16;67.94;101012.95;1944887;91;30472;-66
2022/02/09 19:27:09;;;;;;;36.53;19.10;;;;;;;8.15;67.76;101010.77;2029225;87;30139;-67
2022/02/09 19:30:07;;;;;;;34.43;18.25;;;;;;;8.16;67.84;101019.19;2028463;87;28228;-65
2022/02/09 19:33:26;;;;;;;31.95;17.45;;;;;;;8.15;67.90;101013.88;2030058;87;28678;-65
2022/02/09 19:49:55;;;;;;;44.90;24.23;;;;;;;8.12;67.93;100998.83;2134477;81;28669;-69
2022/02/09 19:56:05;;;;;;;33.70;18.55;;;;;;;8.11;67.89;100995.75;2029233;86;33960;-64
2022/02/09 19:59:05;;;;;;;31.60;15.40;;;;;;;8.11;67.97;101005.56;2096307;84;29341;-63
2022/02/09 20:02:09;;;;;;;23.52;15.45;;;;;;;8.10;68.00;101008.67;2093664;84;27817;-63
2022/02/09 20:05:11;;;;;;;24.35;14.58;;;;;;;8.11;67.96;101009.56;2082002;84;29344;-65
2022/02/09 20:08:12;;;;;;;27.73;16.70;;;;;;;8.11;68.06;101012.23;2092000;84;32322;-66
2022/02/09 20:11:16;;;;;;;18.80;13.15;;;;;;;8.10;68.00;101010.00;2094053;84;34403;-65
2022/02/09 20:14:20;;;;;;;25.52;15.50;;;;;;;8.11;67.94;101009.56;2080072;84;30204;-65
2022/02/09 20:17:22;;;;;;;19.27;13.25;;;;;;;8.09;68.01;101011.39;2084135;84;27741;-64
2022/02/09 20:20:27;;;;;;;26.15;16.10;;;;;;;8.09;67.99;101010.92;2092045;84;29162;-65
2022/02/09 20:23:29;;;;;;;24.37;13.88;;;;;;;8.06;68.01;101009.23;2083894;84;31204;-63
2022/02/09 20:26:32;;;;;;;26.17;14.73;;;;;;;8.07;67.99;101011.42;2090513;84;32966;-64
2022/02/09 20:29:36;;;;;;;25.55;15.72;;;;;;;8.05;67.96;101011.48;2092893;84;29507;-65
2022/02/09 20:32:48;;;;;;;32.15;17.20;;;;;;;8.05;67.99;101004.80;2112594;81;27771;-64
2022/02/09 20:35:41;;;;;;;27.35;14.78;;;;;;;8.05;68.08;101015.48;2122567;82;30147;-64
2022/02/09 20:38:45;;;;;;;26.77;13.70;;;;;;;8.04;67.89;101004.38;2121748;82;32270;-65
2022/02/09 20:41:49;;;;;;;28.98;13.93;;;;;;;8.04;68.01;101012.39;2148939;81;32986;-65
2022/02/09 20:44:59;;;;;;;31.57;18.62;;;;;;;8.05;68.07;101017.25;2178576;78;29323;-66
2022/02/09 20:48:05;;;;;;;25.72;14.58;;;;;;;8.03;67.88;101007.08;2167851;81;27686;-65
2022/02/09 20:51:05;;;;;;;24.52;13.10;;;;;;;8.03;67.98;101008.41;2172681;81;28704;-65
2022/02/09 20:54:07;;;;;;;23.00;12.90;;;;;;;8.02;67.95;101002.22;2168222;81;31956;-65
2022/02/09 20:57:09;;;;;;;25.12;12.30;;;;;;;8.01;67.84;101005.80;2168485;81;32926;-65
2022/02/09 21:00:20;;;;;;;32.25;18.32;;;;;;;8.02;67.97;101006.69;2173563;81;29144;-63
2022/02/09 21:03:31;;;;;;;23.10;14.85;;;;;;;8.02;67.79;101011.55;2168533;81;27667;-64
2022/02/09 21:12:47;;;;;;;26.20;14.80;;;;;;;8.00;68.00;101008.52;2164407;81;33151;-64
2022/02/09 21:15:59;;;;;;;21.50;13.05;;;;;;;8.01;68.11;101014.28;2170136;81;29941;-67
2022/02/09 21:31:58;;;;;;;19.32;13.28;;;;;;;8.00;67.79;101014.72;2192691;80;29418;-64
2022/02/09 21:44:54;;;;;;;23.10;12.18;;;;;;;7.96;68.07;101010.85;2207414;79;33718;-64
2022/02/09 22:01:04;;;;;;;20.45;11.18;;;;;;;7.90;68.16;101006.09;2201870;80;32996;-64
2022/02/09 22:16:17;;;;;;;25.72;15.93;;;;;;;7.90;68.07;101001.23;2201877;80;27731;-64
2022/02/09 22:20:18;;;;;;;22.55;14.00;;;;;;;7.84;68.24;100992.94;2198706;80;29403;-63
2022/02/09 22:49:21;;;;;;;21.10;11.55;;;;;;;7.86;68.47;100991.07;2144195;81;33786;-63
2022/02/09 22:55:38;;;;;;;19.02;10.70;;;;;;;7.87;68.56;100990.16;2161941;81;27761;-63
2022/02/09 22:58:36;;;;;;;17.20;10.00;;;;;;;7.86;68.57;100989.73;2143227;83;29892;-64
2022/02/09 23:01:51;;;;;;;19.75;11.20;;;;;;;7.86;68.62;100992.41;2149791;81;31524;-65
2022/02/09 23:08:37;;;;;;;18.98;12.15;;;;;;;7.86;68.45;100987.55;2176126;81;30571;-64
2022/02/09 23:21:19;;;;;;;41.80;19.87;;;;;;;7.85;68.49;100981.35;2083173;84;34179;-64
2022/02/09 23:24:26;;;;;;;41.90;19.52;;;;;;;7.85;68.49;100972.02;2066797;85;29715;-63
2022/02/09 23:28:00;;;;;;;37.15;17.50;;;;;;;7.86;68.64;100974.20;2070775;85;27852;-62
